Private Wetterstation Nrnberg - Katzwang
Wetterdaten: Mai 2012
Datum Temp. A. Feuchte A. Luftdruck Regen Wind Richtung Taupunkt Windchill Windben
01.05.2012 20,5 C 58 % 1013 hPa 0,0 l/m 4,6 km/h W-NW 11,7 C 19,2 C 7,4 km/h
02.05.2012 21,0 C 56 % 1009 hPa 0,5 l/m 12,7 km/h W-NW 11,0 C 19,4 C 15,6 km/h
03.05.2012 17,1 C 56 % 1009 hPa 2,6 l/m 2,3 km/h W-NW 7,6 C 16,9 C 5,2 km/h
04.05.2012 16,7 C 54 % 1003 hPa 0,0 l/m 2,5 km/h W-NW 6,7 C 16,7 C 5,4 km/h
05.05.2012 13,3 C 77 % 1004 hPa 4,1 l/m 6,2 km/h W-NW 9,4 C 12,1 C 9,1 km/h
06.05.2012 12,0 C 78 % 1008 hPa 5,2 l/m 2,0 km/h W-NW 8,3 C 11,8 C 4,8 km/h
07.05.2012 12,4 C 78 % 1015 hPa 3,1 l/m 2,6 km/h W-NW 8,5 C 11,7 C 5,5 km/h
08.05.2012 16,2 C 64 % 1013 hPa 0,0 l/m 5,5 km/h NO 8,8 C 14,9 C 8,4 km/h
09.05.2012 18,7 C 69 % 1015 hPa 0,5 l/m 3,3 km/h W-NW 12,7 C 18,7 C 6,1 km/h
10.05.2012 21,1 C 63 % 1019 hPa 0,5 l/m 7,1 km/h W-NW 13,3 C 20,7 C 10,0 km/h
11.05.2012 25,1 C 54 % 1018 hPa 0,0 l/m 13,6 km/h W-NW 14,3 C 25,1 C 21,7 km/h
12.05.2012 11,6 C 67 % 1027 hPa 5,2 l/m 4,2 km/h N-NO 5,5 C 10,8 C 7,1 km/h
13.05.2012 10,1 C 57 % 1024 hPa 0,0 l/m 20,8 km/h N-NO 1,6 C 3,3 C 28,8 km/h
14.05.2012 10,9 C 55 % 1016 hPa 0,0 l/m 13,0 km/h NO 1,7 C 7,7 C 15,9 km/h
15.05.2012 9,7 C 69 % 1008 hPa 2,1 l/m 6,8 km/h N-NO 3,7 C 8,1 C 15,6 km/h
16.05.2012 7,2 C 79 % 1018 hPa 5,7 l/m 3,5 km/h W-NW 3,7 C 5,8 C 6,4 km/h
17.05.2012 9,3 C 63 % 1018 hPa 0,0 l/m 10,4 km/h NO 2,1 C 6,4 C 13,3 km/h
18.05.2012 14,5 C 56 % 1010 hPa 0,0 l/m 17,3 km/h O 5,7 C 10,6 C 26,3 km/h
19.05.2012 19,0 C 60 % 1009 hPa 1,6 l/m 3,2 km/h O 10,6 C 18,7 C 6,1 km/h
20.05.2012 21,7 C 53 % 1003 hPa 0,0 l/m 8,2 km/h O 10,9 C 21,4 C 11,1 km/h
21.05.2012 21,8 C 53 % 997 hPa 0,0 l/m 13,6 km/h O 11,5 C 20,3 C 20,1 km/h
22.05.2012 21,2 C 60 % 1006 hPa 0,5 l/m 7,2 km/h O 12,7 C 20,4 C 10,1 km/h
23.05.2012 23,7 C 56 % 1016 hPa 0,0 l/m 3,0 km/h N-NO 13,9 C 23,5 C 5,8 km/h
24.05.2012 22,0 C 52 % 1020 hPa 0,0 l/m 23,1 km/h NO 11,0 C 19,0 C 30,5 km/h
25.05.2012 19,3 C 47 % 1020 hPa 0,0 l/m 11,1 km/h N-NO 7,0 C 18,0 C 14,0 km/h
26.05.2012 18,6 C 47 % 1017 hPa 0,0 l/m 12,6 km/h O 6,4 C 16,5 C 9,1 km/h
27.05.2012 17,5 C 54 % 1015 hPa 0,0 l/m 4,6 km/h N-NO 7,8 C 16,8 C 7,4 km/h
28.05.2012 19,9 C 53 % 1012 hPa 0,0 l/m 4,2 km/h N 9,6 C 19,4 C 7,1 km/h
29.05.2012 20,9 C 50 % 1011 hPa 0,0 l/m 2,6 km/h W-NW 9,3 C 20,8 C 5,5 km/h
30.05.2012 19,1 C 67 % 1015 hPa 0,5 l/m 2,5 km/h W-NW 12,4 C 19,1 C 5,4 km/h
31.05.2012 18,8 C 69 % 1014 hPa 8,8 l/m 5,9 km/h W-NW 12,4 C 17,6 C 8,8 km/h
Min-Datum 14.05.12 02.05.12 21.05.12 14 Tage 01.05.12 - 14.05.12 18.05.12 01.05.12
Min-Zeit 06:20 16:00 14:10 - 00:40 - 06:20 05:40 00:40
Minimum 1,4 C 29 % 996 hPa - 0,0 km/h - -1,5 C -7,9 C 2,9 km/h
Max-Datum 11.05.12 08.05.12 12.05.12 31.05.12 21.05.12 - 11.05.12 11.05.12 08.05.12
Max-Zeit 14:50 01:00 22:50 20:40 10:10 - 10:40 14:50 10:50
Maximum 33,3 C 85 % 1030 hPa 8,8 l/m 62,3 km/h
O
- 17,2 C 33,3 C 93,9 km/h
NO
Durchschnitt 17,1 C 60 % 1013 hPa #40,9 l/m 7,7 km/h NO 8,8 C 15,9 C 11,4 km/h

Durchschnitt Minimum Temp.10,4 C
Durchschnitt Maximum Temp.23,8 C